createdAt,value
2018-04-07T00:00:51.392Z,62.53
2018-04-07T00:01:51.366Z,62.24
2018-04-07T00:02:51.341Z,61.96
2018-04-07T00:03:51.374Z,61.20
2018-04-07T00:04:51.601Z,61.01
2018-04-07T00:05:51.297Z,61.20
2018-04-07T00:06:51.267Z,61.29
2018-04-07T00:07:51.241Z,61.10
2018-04-07T00:08:51.226Z,61.20
2018-04-07T00:09:51.300Z,61.96
2018-04-07T00:10:51.494Z,61.48
2018-04-07T00:11:51.169Z,61.10
2018-04-07T00:12:51.142Z,61.10
2018-04-07T00:13:51.172Z,60.91
2018-04-07T00:14:51.411Z,60.16
2018-04-07T00:15:51.104Z,60.53
2018-04-07T00:16:51.375Z,60.63
2018-04-07T00:17:51.056Z,59.96
2018-04-07T00:18:51.060Z,60.16
2018-04-07T00:19:51.120Z,59.58
2018-04-07T00:20:50.994Z,59.77
2018-04-07T00:21:50.984Z,59.77
2018-04-07T00:22:51.259Z,60.16
2018-04-07T00:24:50.920Z,59.39
2018-04-07T00:25:51.098Z,59.49
2018-04-07T00:26:50.881Z,58.92
2018-04-07T00:27:50.866Z,59.01
2018-04-07T00:28:51.139Z,58.63
2018-04-07T00:29:50.828Z,59.01
2018-04-07T00:30:50.810Z,58.63
2018-04-07T00:31:50.839Z,58.25
2018-04-07T00:32:50.765Z,57.97
2018-04-07T00:33:50.750Z,57.81
2018-04-07T00:34:51.033Z,57.90
2018-04-07T00:35:50.714Z,58.06
2018-04-07T00:36:50.690Z,57.97
2018-04-07T00:37:50.725Z,57.43
2018-04-07T00:38:50.660Z,57.71
2018-04-07T00:39:50.635Z,57.43
2018-04-07T00:40:50.819Z,56.67
2018-04-07T00:41:50.899Z,56.67
2018-04-07T00:42:50.579Z,56.48
2018-04-07T00:43:51.910Z,56.57
2018-04-07T00:44:50.566Z,56.76
2018-04-07T00:45:50.516Z,56.85
2018-04-07T00:46:50.558Z,56.76
2018-04-07T00:47:50.532Z,56.38
2018-04-07T00:48:50.758Z,56.57
2018-04-07T00:49:50.593Z,56.19
2018-04-07T00:50:50.675Z,56.38
2018-04-07T00:51:50.426Z,56.48
2018-04-07T00:52:50.405Z,56.29
2018-04-07T00:53:50.380Z,56.29
2018-04-07T00:54:50.360Z,55.81
2018-04-07T00:55:50.994Z,55.81
2018-04-07T00:56:50.451Z,55.81
2018-04-07T00:57:50.403Z,55.81
2018-04-07T00:58:50.417Z,55.52
2018-04-07T00:59:50.280Z,55.52
2018-04-07T01:00:50.347Z,55.81
2018-04-07T01:01:50.324Z,56.10
2018-04-07T01:02:50.509Z,55.71
2018-04-07T01:03:50.203Z,56.00
2018-04-07T01:04:50.177Z,55.62
2018-04-07T01:05:50.155Z,56.48
2018-04-07T01:06:50.137Z,56.76
2018-04-07T01:07:50.168Z,56.19
2018-04-07T01:08:50.100Z,56.48
2018-04-07T01:09:50.377Z,56.48
2018-04-07T01:10:50.073Z,56.67
2018-04-07T01:11:50.158Z,56.48
2018-04-07T01:12:50.031Z,57.04
2018-04-07T01:13:50.080Z,57.21
2018-04-07T01:14:50.191Z,57.40
2018-04-07T01:15:49.968Z,57.14
2018-04-07T01:16:50.249Z,57.02
2018-04-07T01:17:49.934Z,57.11
2018-04-07T01:18:49.920Z,56.85
2018-04-07T01:19:50.000Z,56.83
2018-04-07T01:20:50.006Z,57.40
2018-04-07T01:21:49.978Z,57.50
2018-04-07T01:22:49.961Z,57.40
2018-04-07T01:23:50.160Z,57.50
2018-04-07T01:24:49.880Z,57.68
2018-04-07T01:25:49.889Z,57.87
2018-04-07T01:26:49.771Z,58.06
2018-04-07T01:27:49.753Z,58.16
2018-04-07T01:28:49.731Z,58.16
2018-04-07T01:29:50.016Z,58.35
2018-04-07T01:30:49.688Z,58.06
2018-04-07T01:31:52.373Z,58.06
2018-04-07T01:32:49.646Z,58.63
2018-04-07T01:33:49.645Z,58.63
2018-04-07T01:34:49.628Z,58.35
2018-04-07T01:35:49.898Z,59.01
2018-04-07T01:36:49.586Z,58.92
2018-04-07T01:37:49.656Z,58.63
2018-04-07T01:38:49.534Z,58.92
2018-04-07T01:39:49.570Z,58.92
2018-04-07T01:40:49.502Z,59.11
2018-04-07T01:41:49.789Z,59.11
2018-04-07T01:42:49.479Z,59.68
2018-04-07T01:43:50.711Z,59.30
2018-04-07T01:44:49.447Z,59.20
2018-04-07T01:45:49.412Z,58.92
2018-04-07T01:46:49.386Z,59.20
2018-04-07T01:47:49.677Z,60.25
2018-04-07T01:48:49.350Z,59.68
2018-04-07T01:49:49.384Z,59.11
2018-04-07T01:50:49.316Z,59.58
2018-04-07T01:51:49.302Z,59.96
2018-04-07T01:52:49.278Z,59.65
2018-04-07T01:53:49.667Z,59.77
2018-04-07T01:54:49.234Z,59.68
2018-04-07T01:55:49.617Z,59.84
2018-04-07T01:56:49.261Z,60.35
2018-04-07T01:57:49.509Z,59.74
2018-04-07T01:58:49.182Z,59.74
2018-04-07T01:59:49.460Z,59.65
2018-04-07T02:00:49.123Z,60.03
2018-04-07T02:01:49.168Z,59.74
2018-04-07T02:02:49.186Z,60.13
2018-04-07T02:03:49.283Z,60.03
2018-04-07T02:04:49.054Z,60.13
2018-04-07T02:05:49.034Z,60.69
2018-04-07T02:06:49.324Z,60.60
2018-04-07T02:07:49.008Z,60.50
2018-04-07T02:08:49.337Z,60.60
2018-04-07T02:09:49.125Z,60.79
2018-04-07T02:10:48.936Z,60.88
2018-04-07T02:11:48.922Z,61.36
2018-04-07T02:12:48.892Z,61.55
2018-04-07T02:13:49.279Z,61.36
2018-04-07T02:14:48.861Z,61.17
2018-04-07T02:15:50.102Z,61.17
2018-04-07T02:16:48.871Z,61.17
2018-04-07T02:17:48.910Z,60.98
2018-04-07T02:18:48.782Z,61.26
2018-04-07T02:19:48.824Z,61.36
2018-04-07T02:20:49.145Z,60.60
2018-04-07T02:21:48.985Z,61.36
2018-04-07T02:22:50.122Z,61.26
2018-04-07T02:23:48.706Z,61.26
2018-04-07T02:24:48.666Z,61.93
2018-04-07T02:25:48.696Z,61.74
2018-04-07T02:26:48.638Z,62.12
2018-04-07T02:27:49.027Z,61.93
2018-04-07T02:28:48.590Z,61.74
2018-04-07T02:29:48.579Z,61.45
2018-04-07T02:30:48.559Z,62.02
2018-04-07T02:31:48.544Z,62.31
2018-04-07T02:32:48.513Z,62.31
2018-04-07T02:33:48.560Z,61.83
2018-04-07T02:34:48.774Z,62.02
2018-04-07T02:35:48.470Z,62.12
2018-04-07T02:36:48.448Z,62.02
2018-04-07T02:37:48.421Z,61.65
2018-04-07T02:38:48.402Z,61.45
2018-04-07T02:39:48.536Z,61.26
2018-04-07T02:40:48.371Z,61.36
2018-04-07T02:41:48.648Z,61.74
2018-04-07T02:42:48.333Z,61.65
2018-04-07T02:43:48.322Z,61.83
2018-04-07T02:44:48.290Z,61.17
2018-04-07T02:45:48.408Z,61.26
2018-04-07T02:46:48.271Z,61.07
2018-04-07T02:47:48.236Z,61.07
2018-04-07T02:49:48.506Z,61.26
2018-04-07T02:50:48.196Z,61.93
2018-04-07T02:51:48.365Z,62.40
2018-04-07T02:52:48.136Z,62.50
2018-04-07T02:53:48.221Z,62.40
2018-04-07T02:54:48.212Z,62.21
2018-04-07T02:55:48.447Z,62.21
2018-04-07T02:56:48.153Z,62.31
2018-04-07T02:57:48.102Z,62.40
2018-04-07T02:58:48.017Z,62.27
2018-04-07T02:59:48.004Z,62.37
2018-04-07T03:00:47.980Z,62.37
2018-04-07T03:01:48.263Z,62.46
2018-04-07T03:02:47.941Z,62.37
2018-04-07T03:03:48.093Z,61.99
2018-04-07T03:04:48.673Z,62.08
2018-04-07T03:05:47.994Z,62.08
2018-04-07T03:06:48.173Z,62.37
2018-04-07T03:07:48.173Z,62.56
2018-04-07T03:08:47.821Z,62.66
2018-04-07T03:09:47.953Z,62.85
2018-04-07T03:10:47.782Z,62.66
2018-04-07T03:11:47.819Z,62.75
2018-04-07T03:12:47.744Z,62.85
2018-04-07T03:13:48.020Z,63.04
2018-04-07T03:14:47.708Z,63.23
2018-04-07T03:15:47.999Z,62.56
2018-04-07T03:16:47.673Z,63.04
2018-04-07T03:17:47.999Z,63.04
2018-04-07T03:18:47.637Z,63.23
2018-04-07T03:19:48.509Z,62.75
2018-04-07T03:22:32.301Z,63.23
2018-04-07T03:23:32.233Z,63.42
2018-04-07T03:24:32.420Z,63.04
2018-04-07T03:25:32.268Z,63.51
2018-04-07T03:26:32.311Z,63.51
2018-04-07T03:27:32.161Z,63.51
2018-04-07T03:28:32.137Z,63.23
2018-04-07T03:29:32.113Z,63.51
2018-04-07T03:30:32.098Z,63.79
2018-04-07T03:31:32.077Z,63.70
2018-04-07T03:32:32.153Z,64.46
2018-04-07T03:34:32.317Z,63.98
2018-04-07T03:35:32.008Z,64.08
2018-04-07T03:36:31.981Z,63.79
2018-04-07T03:37:31.956Z,64.37
2018-04-07T03:38:32.042Z,64.37
2018-04-07T03:39:31.925Z,64.17
2018-04-07T03:40:31.896Z,63.51
2018-04-07T03:41:31.881Z,63.51
2018-04-07T03:42:31.956Z,63.32
2018-04-07T03:43:32.533Z,63.70
2018-04-07T03:44:31.998Z,64.37
2018-04-07T03:45:31.796Z,64.37
2018-04-07T03:46:31.781Z,64.27
2018-04-07T03:47:31.892Z,64.17
2018-04-07T03:48:31.755Z,64.56
2018-04-07T03:49:31.819Z,64.65
2018-04-07T03:50:31.911Z,64.75
2018-04-07T03:51:31.678Z,64.56
2018-04-07T03:52:31.662Z,64.27
2018-04-07T03:53:31.641Z,64.46
2018-04-07T03:54:31.623Z,64.65
2018-04-07T03:55:31.601Z,64.56
2018-04-07T03:56:31.630Z,64.46
2018-04-07T03:57:31.613Z,64.27
2018-04-07T03:58:31.548Z,64.46
2018-04-07T03:59:31.525Z,64.56
2018-04-07T04:00:31.501Z,64.17
2018-04-07T04:01:31.484Z,64.56
2018-04-07T04:02:31.460Z,64.56
2018-04-07T04:03:31.490Z,64.56
2018-04-07T04:04:31.426Z,64.27
2018-04-07T04:05:31.406Z,64.84
2018-04-07T04:06:31.403Z,64.08
2018-04-07T04:07:31.365Z,64.37
2018-04-07T04:08:31.346Z,64.56
2018-04-07T04:09:31.378Z,65.50
2018-04-07T04:10:31.351Z,65.09
2018-04-07T04:11:31.282Z,65.12
2018-04-07T04:12:31.270Z,65.60
2018-04-07T04:13:31.262Z,65.85
2018-04-07T04:14:31.223Z,65.56
2018-04-07T04:15:31.213Z,66.14
2018-04-07T04:16:31.236Z,65.88
2018-04-07T04:17:31.164Z,65.03
2018-04-07T04:18:31.145Z,64.37
2018-04-07T04:19:31.124Z,64.56
2018-04-07T04:20:31.104Z,64.56
2018-04-07T04:21:31.082Z,64.84
2018-04-07T04:22:31.118Z,65.28
2018-04-07T04:23:31.044Z,65.85
2018-04-07T04:24:31.023Z,66.14
2018-04-07T04:25:31.004Z,66.14
2018-04-07T04:26:31.033Z,66.04
2018-04-07T04:27:30.965Z,66.14
2018-04-07T04:28:30.950Z,66.23
2018-04-07T04:29:30.919Z,66.14
2018-04-07T04:30:30.955Z,66.04
2018-04-07T04:31:30.888Z,66.04
2018-04-07T04:32:30.908Z,66.04
2018-04-07T04:33:30.842Z,66.14
2018-04-07T04:34:30.825Z,66.33
2018-04-07T04:35:30.811Z,66.42
2018-04-07T04:36:30.826Z,66.52
2018-04-07T04:37:30.768Z,66.23
2018-04-07T04:38:30.792Z,66.61
2018-04-07T04:39:30.723Z,65.95
2018-04-07T04:40:30.707Z,66.52
2018-04-07T04:41:30.695Z,66.52
2018-04-07T04:42:30.664Z,66.14
2018-04-07T04:43:30.648Z,66.14
2018-04-07T04:44:30.887Z,66.23
2018-04-07T04:45:30.679Z,66.14
2018-04-07T04:46:30.756Z,66.99
2018-04-07T04:47:30.564Z,66.61
2018-04-07T04:48:30.547Z,66.42
2018-04-07T04:49:30.573Z,66.23
2018-04-07T04:50:30.611Z,66.33
2018-04-07T04:51:30.490Z,66.80
2018-04-07T04:52:30.463Z,66.80
2018-04-07T04:53:30.443Z,66.61
2018-04-07T04:54:30.423Z,66.99
2018-04-07T04:55:30.403Z,67.08
2018-04-07T04:56:30.436Z,66.61
2018-04-07T04:57:30.366Z,66.61
2018-04-07T04:58:30.340Z,66.14
2018-04-07T04:59:30.324Z,66.61
2018-04-07T05:00:30.302Z,66.14
2018-04-07T05:01:30.333Z,66.42
2018-04-07T05:02:30.265Z,66.33
2018-04-07T05:03:30.563Z,66.52
2018-04-07T05:04:30.227Z,66.04
2018-04-07T05:05:30.204Z,66.14
2018-04-07T05:06:30.186Z,65.95
2018-04-07T05:07:30.214Z,65.95
2018-04-07T05:08:30.156Z,66.14
2018-04-07T05:09:30.224Z,65.95
2018-04-07T05:10:30.104Z,65.95
2018-04-07T05:11:30.081Z,66.42
2018-04-07T05:12:30.063Z,65.60
2018-04-07T05:13:30.097Z,65.88
2018-04-07T05:14:30.023Z,65.66
2018-04-07T05:15:30.008Z,65.88
2018-04-07T05:16:29.987Z,65.50
2018-04-07T05:17:29.966Z,64.46
2018-04-07T05:18:29.994Z,64.75
2018-04-07T05:19:29.970Z,64.65
2018-04-07T05:20:29.904Z,64.37
2018-04-07T05:21:29.881Z,64.56
2018-04-07T05:22:29.867Z,64.56
2018-04-07T05:23:29.850Z,64.75
2018-04-07T05:24:29.827Z,64.46
2018-04-07T05:25:29.858Z,64.56
2018-04-07T05:27:30.064Z,64.65
2018-04-07T05:28:29.744Z,64.65
2018-04-07T05:29:29.725Z,64.27
2018-04-07T05:30:29.703Z,64.08
2018-04-07T05:31:30.033Z,64.17
2018-04-07T05:32:29.664Z,64.08
2018-04-07T05:33:29.643Z,64.17
2018-04-07T05:34:29.635Z,63.98
2018-04-07T05:35:29.605Z,64.27
2018-04-07T05:36:29.583Z,63.70
2018-04-07T05:37:29.624Z,63.42
2018-04-07T05:38:29.548Z,63.60
2018-04-07T05:39:29.529Z,63.70
2018-04-07T05:40:29.504Z,63.42
2018-04-07T05:41:29.498Z,63.51
2018-04-07T05:42:29.467Z,63.42
2018-04-07T05:43:29.496Z,63.51
2018-04-07T05:44:29.436Z,63.51
2018-04-07T05:45:29.407Z,63.04
2018-04-07T05:46:29.388Z,62.56
2018-04-07T05:47:29.370Z,63.04
2018-04-07T05:48:29.353Z,63.04
2018-04-07T05:49:29.478Z,63.23
2018-04-07T05:50:29.350Z,62.94
2018-04-07T05:51:29.291Z,63.04
2018-04-07T05:53:29.606Z,62.75
2018-04-07T05:54:29.233Z,63.04
2018-04-07T05:55:29.316Z,62.85
2018-04-07T05:56:29.417Z,62.88
2018-04-07T05:57:29.319Z,62.66
2018-04-07T05:58:29.214Z,62.75
2018-04-07T05:59:29.535Z,62.88
2018-04-07T06:00:29.118Z,63.17
2018-04-07T06:02:29.460Z,62.56
2018-04-07T06:03:30.558Z,62.66
2018-04-07T06:06:28.993Z,63.17
2018-04-07T06:07:29.239Z,62.88
2018-04-07T06:08:29.119Z,62.97
2018-04-07T06:09:28.938Z,62.69
2018-04-07T06:10:28.919Z,62.59
2018-04-07T06:11:28.980Z,62.88
2018-04-07T06:12:28.887Z,62.12
2018-04-07T06:14:28.895Z,61.17
2018-04-07T06:15:28.835Z,61.17
2018-04-07T06:16:28.811Z,61.17
2018-04-07T06:17:28.787Z,60.98
2018-04-07T06:18:28.873Z,61.36
2018-04-07T06:19:28.980Z,60.98
2018-04-07T06:20:28.914Z,61.36
2018-04-07T06:21:28.711Z,60.41
2018-04-07T06:22:28.772Z,61.26
2018-04-07T06:23:28.703Z,61.01
2018-04-07T06:24:28.651Z,59.77
2018-04-07T06:25:28.638Z,59.87
2018-04-07T06:26:28.670Z,59.77
2018-04-07T06:27:28.663Z,60.82
2018-04-07T06:28:28.580Z,59.87
2018-04-07T06:29:28.642Z,59.39
2018-04-07T06:30:28.891Z,59.11
2018-04-07T06:31:28.524Z,59.01
2018-04-07T06:32:28.765Z,58.92
2018-04-07T06:33:28.539Z,59.11
2018-04-07T06:34:28.481Z,58.54
2018-04-07T06:35:28.447Z,58.35
2018-04-07T06:36:28.481Z,58.35
2018-04-07T06:37:28.409Z,58.00
2018-04-07T06:38:28.424Z,58.09
2018-04-07T06:39:28.371Z,58.00
2018-04-07T06:40:28.354Z,58.00
2018-04-07T06:41:28.335Z,58.00
2018-04-07T06:42:28.373Z,57.90
2018-04-07T06:44:28.324Z,57.33
2018-04-07T06:45:28.274Z,57.24
2018-04-07T06:46:28.242Z,57.52
2018-04-07T06:47:28.286Z,56.57
2018-04-07T06:48:28.264Z,56.19
2018-04-07T06:49:28.285Z,56.67
2018-04-07T06:50:28.871Z,56.10
2018-04-07T06:51:28.160Z,56.76
2018-04-07T06:52:28.225Z,56.12
2018-04-07T06:53:28.135Z,56.60
2018-04-07T06:54:28.144Z,56.31
2018-04-07T06:55:28.079Z,55.17
2018-04-07T06:56:28.064Z,55.65
2018-04-07T06:57:28.044Z,54.98
2018-04-07T06:58:28.030Z,54.98
2018-04-07T06:59:28.008Z,55.27
2018-04-07T07:00:28.380Z,55.27
2018-04-07T07:01:27.972Z,55.65
2018-04-07T07:02:27.955Z,54.50
2018-04-07T07:03:27.933Z,54.32
2018-04-07T07:04:27.918Z,54.22
2018-04-07T07:05:27.899Z,54.13
2018-04-07T07:06:28.031Z,53.77
2018-04-07T07:07:27.861Z,53.39
2018-04-07T07:08:27.842Z,53.87
2018-04-07T07:09:27.831Z,53.77
2018-04-07T07:10:27.807Z,53.01
2018-04-07T07:11:27.839Z,53.30
2018-04-07T07:12:28.319Z,53.49
2018-04-07T07:13:27.913Z,53.49
2018-04-07T07:15:28.028Z,52.44
2018-04-07T07:16:27.758Z,52.34
2018-04-07T07:17:27.743Z,52.44
2018-04-07T07:18:27.779Z,52.44
2018-04-07T07:19:27.653Z,52.37
2018-04-07T07:20:27.635Z,52.56
2018-04-07T07:22:27.914Z,51.51
2018-04-07T07:23:27.584Z,51.51
2018-04-07T07:24:27.631Z,51.61
2018-04-07T07:25:27.549Z,51.45
2018-04-07T07:26:27.539Z,51.06
2018-04-07T07:27:27.512Z,50.30
2018-04-07T07:28:27.504Z,49.66
2018-04-07T07:29:27.659Z,48.73
2018-04-07T07:30:27.601Z,47.30
2018-04-07T07:31:27.454Z,46.63
2018-04-07T07:32:27.436Z,46.82
2018-04-07T07:33:27.419Z,46.75
2018-04-07T07:34:27.448Z,46.56
2018-04-07T07:35:27.392Z,45.58
2018-04-07T07:36:27.372Z,45.61
2018-04-07T07:37:27.410Z,45.70
2018-04-07T07:38:27.696Z,45.22
2018-04-07T07:39:27.328Z,45.22
2018-04-07T07:40:27.386Z,45.32
2018-04-07T07:41:27.289Z,45.32
2018-04-07T07:42:27.277Z,45.22
2018-04-07T07:44:27.240Z,44.38
2018-04-07T07:45:27.279Z,44.10
2018-04-07T07:46:27.306Z,44.29
2018-04-07T07:47:27.239Z,44.22
2018-04-07T07:48:27.184Z,43.51
2018-04-07T07:49:27.168Z,44.41
2018-04-07T07:50:27.157Z,43.74
2018-04-07T07:51:27.138Z,42.90
2018-04-07T07:52:27.575Z,42.48
2018-04-07T07:53:27.107Z,43.05
2018-04-07T07:54:27.099Z,43.46
2018-04-07T07:55:27.384Z,43.38
2018-04-07T07:56:27.278Z,42.71
2018-04-07T07:57:27.049Z,42.02
2018-04-07T07:58:27.189Z,42.21
2018-04-07T07:59:27.031Z,42.88
2018-04-07T08:00:27.012Z,42.88
2018-04-07T08:01:27.191Z,43.26
2018-04-07T08:02:26.997Z,43.19
2018-04-07T08:03:27.032Z,42.73
2018-04-07T08:04:26.956Z,41.11
2018-04-07T08:05:26.940Z,40.72
2018-04-07T08:06:26.940Z,41.30
2018-04-07T08:07:26.918Z,40.82
2018-04-07T08:08:26.901Z,40.46
2018-04-07T08:09:26.939Z,40.34
2018-04-07T08:10:26.875Z,40.82
2018-04-07T08:11:26.867Z,40.17
2018-04-07T08:12:26.847Z,40.06
2018-04-07T08:13:26.847Z,40.72
2018-04-07T08:14:26.828Z,41.30
2018-04-07T08:15:26.867Z,41.03
2018-04-07T08:16:26.896Z,40.19
2018-04-07T08:17:26.790Z,39.69
2018-04-07T08:18:26.773Z,39.50
2018-04-07T08:19:26.759Z,39.23
2018-04-07T08:20:26.745Z,39.03
2018-04-07T08:21:26.784Z,39.31
2018-04-07T08:22:26.731Z,39.60
2018-04-07T08:23:26.704Z,39.39
2018-04-07T08:24:26.702Z,39.58
2018-04-07T08:25:26.699Z,40.08
2018-04-07T08:26:26.985Z,39.40
2018-04-07T08:27:26.822Z,39.50
2018-04-07T08:28:26.656Z,39.25
2018-04-07T08:29:26.650Z,38.95
2018-04-07T08:30:26.635Z,39.40
2018-04-07T08:31:26.618Z,39.12
2018-04-07T08:32:26.608Z,39.14
2018-04-07T08:33:26.732Z,39.06
2018-04-07T08:34:26.716Z,37.72
2018-04-07T08:35:26.577Z,37.63
2018-04-07T08:36:26.564Z,37.84
2018-04-07T08:37:26.564Z,37.57
2018-04-07T08:38:26.553Z,36.88
2018-04-07T08:39:26.908Z,36.63
2018-04-07T08:40:26.577Z,36.05
2018-04-07T08:41:26.647Z,35.08
2018-04-07T08:42:26.553Z,34.81
2018-04-07T08:43:26.491Z,34.79
2018-04-07T08:44:26.511Z,35.16
2018-04-07T08:45:26.525Z,36.11
2018-04-07T08:46:26.528Z,36.98
2018-04-07T08:47:26.455Z,36.22
2018-04-07T08:48:26.449Z,36.13
2018-04-07T08:49:26.435Z,36.69
2018-04-07T08:50:26.421Z,36.98
2018-04-07T08:51:26.412Z,37.51
2018-04-07T08:52:26.459Z,38.85
2018-04-07T08:53:26.461Z,38.59
2018-04-07T08:54:26.387Z,38.39
2018-04-07T08:55:26.377Z,37.84
2018-04-07T08:56:26.415Z,37.47
2018-04-07T08:57:26.460Z,36.82
2018-04-07T08:58:26.498Z,35.97
2018-04-07T08:59:26.339Z,35.53
2018-04-07T09:00:26.328Z,34.90
2018-04-07T09:01:26.428Z,35.84
2018-04-07T09:02:26.318Z,36.11
2018-04-07T09:03:26.607Z,37.36
2018-04-07T09:04:26.342Z,37.36
2018-04-07T09:05:26.291Z,37.92
2018-04-07T09:06:26.280Z,38.68
2018-04-07T09:07:26.319Z,38.91
2018-04-07T09:08:26.255Z,37.97
2018-04-07T09:09:26.600Z,36.74
2018-04-07T09:10:26.471Z,36.32
2018-04-07T09:11:26.227Z,37.72
2018-04-07T09:12:26.240Z,38.49
2018-04-07T09:13:26.211Z,38.43
2018-04-07T09:14:26.354Z,37.76
2018-04-07T09:15:26.678Z,37.76
2018-04-07T09:16:26.543Z,37.76
2018-04-07T09:17:26.183Z,37.97
2018-04-07T09:18:26.186Z,37.49
2018-04-07T09:19:26.177Z,37.66
2018-04-07T09:20:26.159Z,37.72
2018-04-07T09:21:26.251Z,39.01
2018-04-07T09:22:26.193Z,37.53
2018-04-07T09:23:26.139Z,36.38
2018-04-07T09:24:26.126Z,35.71
2018-04-07T09:25:26.113Z,35.32
2018-04-07T09:27:02.402Z,35.13
2018-04-07T09:27:26.178Z,35.78
2018-04-07T09:28:26.152Z,36.16
2018-04-07T09:29:26.090Z,36.63
2018-04-07T09:30:26.075Z,36.99
2018-04-07T09:31:51.760Z,37.68
2018-04-07T09:32:26.059Z,37.49
2018-04-07T09:33:26.406Z,37.70
2018-04-07T09:34:26.048Z,36.95
2018-04-07T09:35:26.038Z,36.46
2018-04-07T09:36:26.047Z,36.20
2018-04-07T09:37:26.325Z,35.26
2018-04-07T09:38:26.018Z,34.97
2018-04-07T09:39:26.069Z,34.78
2018-04-07T09:40:26.006Z,34.28
2018-04-07T09:41:26.000Z,34.47
2018-04-07T09:42:25.993Z,34.57
2018-04-07T09:43:25.979Z,35.51
2018-04-07T09:44:25.977Z,35.16
2018-04-07T09:46:26.011Z,35.43
2018-04-07T09:47:25.953Z,35.06
2018-04-07T09:48:25.954Z,34.86
2018-04-07T09:49:25.941Z,34.95
2018-04-07T09:50:25.934Z,35.61
2018-04-07T09:51:25.927Z,35.53
2018-04-07T09:52:26.271Z,35.55
2018-04-07T09:53:25.967Z,34.99
2018-04-07T09:54:25.929Z,34.31
2018-04-07T09:55:25.899Z,33.91
2018-04-07T09:56:25.951Z,34.95
2018-04-07T09:57:25.988Z,35.55
2018-04-07T09:58:26.007Z,35.63
2018-04-07T09:59:25.902Z,36.24
2018-04-07T10:00:26.085Z,35.18
2018-04-07T10:01:25.868Z,34.91
2018-04-07T10:02:25.857Z,33.85
2018-04-07T10:03:25.904Z,34.05
2018-04-07T10:04:25.899Z,34.43
2018-04-07T10:05:25.843Z,34.47
2018-04-07T10:06:25.839Z,35.34
2018-04-07T10:07:25.834Z,35.26
2018-04-07T10:08:25.827Z,34.22
2018-04-07T10:09:25.970Z,34.03
2018-04-07T10:10:25.869Z,33.64
2018-04-07T10:11:25.810Z,34.19
2018-04-07T10:12:26.105Z,35.55
2018-04-07T10:13:25.798Z,35.49
2018-04-07T10:14:25.801Z,34.06
2018-04-07T10:15:25.809Z,33.12
2018-04-07T10:16:26.134Z,33.42
2018-04-07T10:17:25.781Z,32.65
2018-04-07T10:18:26.079Z,32.18
2018-04-07T10:19:25.777Z,31.69
2018-04-07T10:20:25.774Z,31.67
2018-04-07T10:21:25.762Z,32.03
2018-04-07T10:22:25.812Z,32.33
2018-04-07T10:24:26.049Z,32.81
2018-04-07T10:25:25.743Z,32.54
2018-04-07T10:27:25.742Z,31.11
2018-04-07T10:28:25.780Z,31.49
2018-04-07T10:29:25.739Z,31.70
2018-04-07T10:30:26.031Z,30.93
2018-04-07T10:31:25.739Z,31.51
2018-04-07T10:32:25.716Z,31.72
2018-04-07T10:33:25.714Z,30.76
2018-04-07T10:35:25.804Z,30.19
2018-04-07T10:36:25.710Z,30.27
2018-04-07T10:37:25.700Z,30.08
2018-04-07T10:38:25.714Z,30.07
2018-04-07T10:39:25.687Z,30.96
2018-04-07T10:40:25.692Z,30.27
2018-04-07T10:41:25.881Z,30.37
2018-04-07T10:42:25.986Z,30.08
2018-04-07T10:43:25.683Z,30.46
2018-04-07T10:44:25.779Z,30.15
2018-04-07T10:45:25.671Z,31.51
2018-04-07T10:46:25.674Z,31.81
2018-04-07T10:47:25.725Z,31.72
2018-04-07T10:48:25.680Z,31.56
2018-04-07T10:50:25.669Z,29.76
2018-04-07T10:51:25.655Z,29.95
2018-04-07T10:52:25.671Z,30.63
2018-04-07T10:53:25.703Z,30.32
2018-04-07T10:54:25.666Z,31.11
2018-04-07T10:55:25.720Z,30.64
2018-04-07T10:56:25.643Z,30.38
2018-04-07T10:57:25.653Z,29.60
2018-04-07T10:58:25.643Z,29.97
2018-04-07T10:59:25.706Z,30.07
2018-04-07T11:00:25.944Z,30.74
2018-04-07T11:01:25.633Z,30.83
2018-04-07T11:02:25.737Z,30.19
2018-04-07T11:03:25.671Z,29.69
2018-04-07T11:04:25.629Z,30.29
2018-04-07T11:05:25.677Z,29.53
2018-04-07T11:07:25.639Z,29.52
2018-04-07T11:08:25.633Z,29.97
2018-04-07T11:09:25.622Z,30.37
2018-04-07T11:10:25.649Z,30.10
2018-04-07T11:11:26.115Z,30.10
2018-04-07T11:12:25.633Z,30.12
2018-04-07T11:13:25.617Z,29.36
2018-04-07T11:14:25.611Z,27.92
2018-04-07T11:15:25.767Z,28.97
2018-04-07T11:17:25.962Z,31.01
2018-04-07T11:18:25.659Z,31.02
2018-04-07T11:20:25.603Z,30.47
2018-04-07T11:21:26.314Z,28.62
2018-04-07T11:22:25.603Z,26.66
2018-04-07T11:23:25.666Z,28.40
2018-04-07T11:24:25.600Z,28.61
2018-04-07T11:25:25.599Z,27.93
2018-04-07T11:26:25.605Z,28.51
2018-04-07T11:27:25.598Z,27.85
2018-04-07T11:28:25.643Z,27.73
2018-04-07T11:29:25.717Z,28.63
2018-04-07T11:30:25.599Z,29.41
2018-04-07T11:31:25.610Z,29.31
2018-04-07T11:32:25.592Z,28.95
2018-04-07T11:33:25.602Z,28.55
2018-04-07T11:34:26.107Z,28.95
2018-04-07T11:35:25.746Z,28.85
2018-04-07T11:36:25.593Z,29.24
2018-04-07T11:37:25.623Z,29.35
2018-04-07T11:38:25.695Z,28.59
2018-04-07T11:39:25.592Z,28.69
2018-04-07T11:40:25.689Z,28.69
2018-04-07T11:41:25.605Z,27.72
2018-04-07T11:43:25.601Z,27.98
2018-04-07T11:44:25.635Z,29.52
2018-04-07T11:45:25.665Z,29.60
2018-04-07T11:46:29.030Z,30.18
2018-04-07T11:47:26.994Z,30.08
2018-04-07T11:48:25.819Z,30.18
2018-04-07T11:49:26.018Z,30.11
2018-04-07T11:51:25.760Z,28.70
2018-04-07T11:52:25.635Z,27.91
2018-04-07T11:53:25.583Z,28.85
2018-04-07T11:54:25.686Z,28.55
2018-04-07T11:55:25.588Z,29.98
2018-04-07T11:56:25.944Z,30.58
2018-04-07T11:57:25.582Z,29.55
2018-04-07T11:59:25.628Z,27.68
2018-04-07T12:00:25.595Z,28.84
2018-04-07T12:01:25.593Z,27.91
2018-04-07T12:02:25.599Z,28.00
2018-04-07T12:03:25.576Z,26.77
2018-04-07T12:04:25.929Z,27.26
2018-04-07T12:05:25.578Z,26.64
2018-04-07T12:06:25.592Z,28.00
2018-04-07T12:07:25.573Z,28.85
2018-04-07T12:08:25.571Z,27.62
2018-04-07T12:09:25.576Z,26.75
2018-04-07T12:10:32.131Z,26.97
2018-04-07T12:11:25.614Z,26.07
2018-04-07T12:12:25.783Z,26.86
2018-04-07T12:13:25.572Z,25.61
2018-04-07T12:14:25.569Z,25.62
2018-04-07T12:15:25.576Z,25.13
2018-04-07T12:16:25.923Z,25.60
2018-04-07T12:17:25.620Z,26.08
2018-04-07T12:18:25.571Z,25.70
2018-04-07T12:19:25.775Z,25.23
2018-04-07T12:20:25.572Z,25.40
2018-04-07T12:21:25.570Z,25.02
2018-04-07T12:22:25.716Z,25.20
2018-04-07T12:23:25.579Z,26.33
2018-04-07T12:24:25.685Z,26.64
2018-04-07T12:25:25.575Z,26.51
2018-04-07T12:26:25.568Z,28.26
2018-04-07T12:27:25.574Z,28.14
2018-04-07T12:29:25.917Z,27.28
2018-04-07T12:30:25.622Z,27.67
2018-04-07T12:31:25.559Z,27.85
2018-04-07T12:32:25.565Z,27.80
2018-04-07T12:33:25.563Z,26.62
2018-04-07T12:34:25.612Z,26.81
2018-04-07T12:43:28.782Z,25.42
2018-04-07T12:44:28.726Z,25.39
2018-04-07T12:45:29.139Z,27.02
2018-04-07T12:46:28.743Z,27.89
2018-04-07T12:47:29.711Z,27.71
2018-04-07T12:48:29.007Z,27.82
2018-04-07T12:49:29.345Z,26.35
2018-04-07T12:50:29.496Z,27.78
2018-04-07T12:51:30.281Z,28.85
2018-04-07T12:52:30.422Z,27.91
2018-04-07T12:53:29.896Z,27.15
2018-04-07T12:54:30.422Z,25.71
2018-04-07T12:55:29.104Z,26.51
2018-04-07T12:58:29.150Z,24.80
2018-04-07T12:59:28.718Z,24.77
2018-04-07T13:00:28.716Z,25.63
2018-04-07T13:01:28.774Z,25.55
2018-04-07T13:02:29.825Z,24.87
2018-04-07T13:03:28.878Z,24.39
2018-04-07T13:04:28.728Z,24.79
2018-04-07T13:05:29.199Z,24.84
2018-04-07T13:06:28.856Z,25.79
2018-04-07T13:07:29.095Z,26.56
2018-04-07T13:08:28.724Z,26.66
2018-04-07T13:09:28.719Z,26.48
2018-04-07T13:10:28.772Z,25.42
2018-04-07T13:11:28.707Z,26.28
2018-04-07T13:12:29.324Z,27.81
2018-04-07T13:13:29.103Z,28.61
2018-04-07T13:15:29.653Z,26.75
2018-04-07T13:16:28.917Z,28.19
2018-04-07T13:17:29.074Z,28.67
2018-04-07T13:18:28.720Z,28.40
2018-04-07T13:19:29.096Z,28.99
2018-04-07T13:21:28.799Z,28.11
2018-04-07T13:22:28.711Z,28.31
2018-04-07T13:23:28.836Z,28.25
2018-04-07T13:24:28.712Z,26.87
2018-04-07T13:25:29.031Z,27.82
2018-04-07T13:26:28.713Z,28.30
2018-04-07T13:27:29.407Z,28.19
2018-04-07T13:28:28.701Z,28.48
2018-04-07T13:29:28.775Z,28.51
2018-04-07T13:30:28.707Z,27.85
2018-04-07T13:31:29.088Z,26.59